createdAt,value
2022-08-02T00:01:04.140Z,28.20
2022-08-02T00:03:32.416Z,28.90
2022-08-02T00:06:01.339Z,29.00
2022-08-02T00:08:29.487Z,28.60
2022-08-02T00:10:57.733Z,28.10
2022-08-02T00:13:25.532Z,27.90
2022-08-02T00:15:53.752Z,27.70
2022-08-02T00:18:21.752Z,28.20
2022-08-02T00:20:50.216Z,28.10
2022-08-02T00:23:18.339Z,28.00
2022-08-02T00:25:54.792Z,27.90
2022-08-02T00:28:28.025Z,27.80
2022-08-02T00:30:58.911Z,28.10
2022-08-02T00:34:28.346Z,29.20
2022-08-02T00:36:16.736Z,29.50
2022-08-02T00:38:45.131Z,29.20
2022-08-02T00:41:16.839Z,28.80
2022-08-02T00:43:46.881Z,28.50
2022-08-02T00:46:17.018Z,29.10
2022-08-02T00:48:45.518Z,29.90
2022-08-02T00:51:14.426Z,29.70
2022-08-02T00:53:42.796Z,29.30
2022-08-02T00:56:10.957Z,28.90
2022-08-02T00:58:39.279Z,28.70
2022-08-02T01:01:07.427Z,29.30
2022-08-02T01:03:35.655Z,29.80
2022-08-02T01:06:12.320Z,29.50
2022-08-02T01:08:40.980Z,29.00
2022-08-02T01:11:08.995Z,28.60
2022-08-02T01:13:37.687Z,28.80
2022-08-02T01:16:15.557Z,29.30
2022-08-02T01:18:51.587Z,29.40
2022-08-02T01:21:38.431Z,29.00
2022-08-02T01:24:30.241Z,28.70
2022-08-02T01:27:22.186Z,28.60
2022-08-02T01:29:57.965Z,29.10
2022-08-02T01:32:42.692Z,29.30
2022-08-02T01:35:16.169Z,28.80
2022-08-02T01:37:58.705Z,28.50
2022-08-02T01:40:33.161Z,28.20
2022-08-02T01:43:02.455Z,28.50
2022-08-02T01:45:35.877Z,29.00
2022-08-02T01:48:05.272Z,28.80
2022-08-02T01:50:37.513Z,28.50
2022-08-02T01:53:12.096Z,28.10
2022-08-02T01:55:56.928Z,28.10
2022-08-02T01:58:35.278Z,28.60
2022-08-02T02:01:04.873Z,28.80
2022-08-02T02:03:34.872Z,28.40
2022-08-02T02:06:12.314Z,28.00
2022-08-02T02:08:42.368Z,27.70
2022-08-02T02:12:13.077Z,27.80
2022-08-02T02:14:01.518Z,28.20
2022-08-02T02:16:32.359Z,28.20
2022-08-02T02:19:03.788Z,27.80
2022-08-02T02:21:31.988Z,27.50
2022-08-02T02:24:03.651Z,27.40
2022-08-02T02:26:36.507Z,27.80
2022-08-02T02:29:09.166Z,28.40
2022-08-02T02:31:40.010Z,28.10
2022-08-02T02:34:33.405Z,27.70
2022-08-02T02:37:05.105Z,27.30
2022-08-02T02:39:35.805Z,27.70
2022-08-02T02:42:07.900Z,28.00
2022-08-02T02:44:37.237Z,27.90
2022-08-02T02:47:06.325Z,27.60
2022-08-02T02:49:36.908Z,27.30
2022-08-02T02:52:07.010Z,27.10
2022-08-02T02:54:36.894Z,27.40
2022-08-02T02:57:07.339Z,28.00
2022-08-02T02:59:43.010Z,27.80
2022-08-02T03:02:19.607Z,27.50
2022-08-02T03:04:55.940Z,27.20
2022-08-02T03:07:27.380Z,26.90
2022-08-02T03:09:55.637Z,27.40
2022-08-02T03:12:32.220Z,27.80
2022-08-02T03:15:04.503Z,27.60
2022-08-02T03:17:40.972Z,27.20
2022-08-02T03:20:15.305Z,26.90
2022-08-02T03:22:45.378Z,26.90
2022-08-02T03:25:14.647Z,27.40
2022-08-02T03:27:42.852Z,27.50
2022-08-02T03:30:12.587Z,27.40
2022-08-02T03:32:47.971Z,27.10
2022-08-02T03:35:23.437Z,26.90
2022-08-02T03:37:55.016Z,26.70
2022-08-02T03:40:23.827Z,26.90
2022-08-02T03:42:52.110Z,27.40
2022-08-02T03:45:21.422Z,27.40
2022-08-02T03:47:50.460Z,27.10
2022-08-02T03:50:20.397Z,26.90
2022-08-02T03:52:49.091Z,26.70
2022-08-02T03:55:17.123Z,26.70
2022-08-02T03:57:45.417Z,27.20
2022-08-02T04:00:18.628Z,27.50
2022-08-02T04:02:47.110Z,27.20
2022-08-02T04:05:16.257Z,27.00
2022-08-02T04:08:34.234Z,26.80
2022-08-02T04:10:32.720Z,26.60
2022-08-02T04:13:00.698Z,27.00
2022-08-02T04:15:28.838Z,27.20
2022-08-02T04:18:00.311Z,27.10
2022-08-02T04:20:32.159Z,26.90
2022-08-02T04:23:07.154Z,26.70
2022-08-02T04:25:40.517Z,26.60
2022-08-02T04:28:17.260Z,27.20
2022-08-02T04:30:47.763Z,27.50
2022-08-02T04:33:16.076Z,27.30
2022-08-02T04:35:45.703Z,27.10
2022-08-02T04:38:15.168Z,26.90
2022-08-02T04:40:52.745Z,26.70
2022-08-02T04:43:21.321Z,27.30
2022-08-02T04:45:56.230Z,27.70
2022-08-02T04:48:24.960Z,27.60
2022-08-02T04:50:52.844Z,27.40
2022-08-02T04:53:21.058Z,27.20
2022-08-02T04:55:48.895Z,27.00
2022-08-02T05:01:05.544Z,27.60
2022-08-02T05:03:33.758Z,27.60
2022-08-02T05:06:01.883Z,27.40
2022-08-02T05:08:30.294Z,27.20
2022-08-02T05:10:58.422Z,27.10
2022-08-02T05:13:26.391Z,27.10
2022-08-02T05:15:54.591Z,27.60
2022-08-02T05:18:22.537Z,28.20
2022-08-02T05:20:53.022Z,28.10
2022-08-02T05:23:25.026Z,27.90
2022-08-02T05:25:53.186Z,27.80
2022-08-02T05:28:21.175Z,27.70
2022-08-02T05:30:49.306Z,27.80
2022-08-02T05:33:18.360Z,28.20
2022-08-02T05:35:46.315Z,28.60
2022-08-02T05:38:15.395Z,28.50
2022-08-02T05:40:54.473Z,28.40
2022-08-02T05:43:24.103Z,28.30
2022-08-02T05:45:54.069Z,28.20
2022-08-02T05:48:22.245Z,28.70
2022-08-02T05:50:54.657Z,29.40
2022-08-02T05:53:51.983Z,29.50
2022-08-02T05:56:33.862Z,29.30
2022-08-02T05:59:11.783Z,29.10
2022-08-02T06:01:43.370Z,29.00
2022-08-02T06:04:21.433Z,29.00
2022-08-02T06:06:56.374Z,29.80
2022-08-02T06:09:27.319Z,30.70
2022-08-02T06:12:02.402Z,30.50
2022-08-02T06:14:34.361Z,30.20
2022-08-02T06:17:06.088Z,29.90
2022-08-02T06:19:50.902Z,29.70
2022-08-02T06:22:33.088Z,29.90
2022-08-02T06:25:06.153Z,31.00
2022-08-02T06:27:35.895Z,31.20
2022-08-02T06:30:05.289Z,30.80
2022-08-02T06:32:34.831Z,30.50
2022-08-02T06:35:06.766Z,30.20
2022-08-02T06:38:19.076Z,29.90
2022-08-02T06:40:56.911Z,29.80
2022-08-02T06:43:52.017Z,29.90
2022-08-02T06:47:10.502Z,30.40
2022-08-02T06:49:08.752Z,30.70
2022-08-02T06:51:36.948Z,30.50
2022-08-02T06:54:05.228Z,30.30
2022-08-02T06:56:33.244Z,30.10
2022-08-02T06:59:05.829Z,30.00
2022-08-02T07:01:38.659Z,29.90
2022-08-02T07:04:07.864Z,30.20
2022-08-02T07:06:36.785Z,30.50
2022-08-02T07:09:20.718Z,30.50
2022-08-02T07:11:49.528Z,30.40
2022-08-02T07:14:17.445Z,30.30
2022-08-02T07:16:45.760Z,30.10
2022-08-02T07:19:14.002Z,30.00
2022-08-02T07:21:56.700Z,29.80
2022-08-02T07:24:27.982Z,30.10
2022-08-02T07:27:10.463Z,30.40
2022-08-02T07:29:45.918Z,30.40
2022-08-02T07:32:19.620Z,30.30
2022-08-02T07:34:52.913Z,30.30
2022-08-02T07:37:35.861Z,30.10
2022-08-02T07:40:14.780Z,30.30
2022-08-02T07:42:44.902Z,31.20
2022-08-02T07:45:14.984Z,31.70
2022-08-02T07:47:44.800Z,31.50
2022-08-02T07:50:15.037Z,31.10
2022-08-02T07:52:44.270Z,30.80
2022-08-02T07:55:13.062Z,30.70
2022-08-02T07:57:46.375Z,30.60
2022-08-02T08:00:17.801Z,30.50
2022-08-02T08:02:47.035Z,30.40
2022-08-02T08:05:15.869Z,30.40
2022-08-02T08:07:44.544Z,30.40
2022-08-02T08:10:12.802Z,30.50
2022-08-02T08:12:41.015Z,30.50
2022-08-02T08:15:10.179Z,30.50
2022-08-02T08:17:39.271Z,30.40
2022-08-02T08:20:15.624Z,30.30
2022-08-02T08:22:44.639Z,30.40
2022-08-02T08:25:12.599Z,30.50
2022-08-02T08:27:52.705Z,30.50
2022-08-02T08:30:22.579Z,30.50
2022-08-02T08:32:53.621Z,30.60
2022-08-02T08:35:21.821Z,30.70
2022-08-02T08:37:50.209Z,30.80
2022-08-02T08:40:19.927Z,30.90
2022-08-02T08:42:48.423Z,31.00
2022-08-02T08:45:18.461Z,31.10
2022-08-02T08:47:52.748Z,31.00
2022-08-02T08:50:26.257Z,30.90
2022-08-02T08:53:09.268Z,30.90
2022-08-02T08:55:40.671Z,31.10
2022-08-02T08:58:08.512Z,31.30
2022-08-02T09:00:37.359Z,31.50
2022-08-02T09:03:07.576Z,31.50
2022-08-02T09:05:36.889Z,31.60
2022-08-02T09:08:05.718Z,31.60
2022-08-02T09:10:48.403Z,31.40
2022-08-02T09:13:37.957Z,31.40
2022-08-02T09:16:13.106Z,31.70
2022-08-02T09:18:51.926Z,31.80
2022-08-02T09:21:20.238Z,31.80
2022-08-02T09:23:51.881Z,31.70
2022-08-02T09:26:22.536Z,31.90
2022-08-02T09:28:53.263Z,32.00
2022-08-02T09:31:23.819Z,32.20
2022-08-02T09:33:54.940Z,32.40
2022-08-02T09:36:25.187Z,32.60
2022-08-02T09:38:58.834Z,32.70
2022-08-02T09:41:29.620Z,32.60
2022-08-02T09:44:04.763Z,32.80
2022-08-02T09:46:42.865Z,33.00
2022-08-02T09:49:17.214Z,33.20
2022-08-02T09:51:52.102Z,33.30
2022-08-02T09:54:22.153Z,33.30
2022-08-02T09:56:54.848Z,33.40
2022-08-02T09:59:25.525Z,33.50
2022-08-02T10:02:01.915Z,33.50
2022-08-02T10:04:34.439Z,33.60
2022-08-02T10:07:22.561Z,33.80
2022-08-02T10:09:52.131Z,33.80
2022-08-02T10:12:22.899Z,33.50
2022-08-02T10:14:52.355Z,33.40
2022-08-02T10:17:22.673Z,33.50
2022-08-02T10:20:03.428Z,33.80
2022-08-02T10:22:35.281Z,34.00
2022-08-02T10:25:05.466Z,34.20
2022-08-02T10:28:02.425Z,34.10
2022-08-02T10:30:25.022Z,34.40
2022-08-02T10:32:54.798Z,34.70
2022-08-02T10:35:26.530Z,34.80
2022-08-02T10:38:04.253Z,35.00
2022-08-02T10:40:45.880Z,35.10
2022-08-02T10:43:34.343Z,35.20
2022-08-02T10:46:20.976Z,35.40
2022-08-02T10:52:06.377Z,35.90
2022-08-02T10:54:41.799Z,36.00
2022-08-02T10:57:27.840Z,36.10
2022-08-02T11:00:17.436Z,36.40
2022-08-02T11:02:53.116Z,37.00
2022-08-02T11:05:42.823Z,37.40
2022-08-02T11:08:23.013Z,37.70
2022-08-02T11:10:51.336Z,37.90
2022-08-02T11:13:22.092Z,38.40
2022-08-02T11:15:58.402Z,38.70
2022-08-02T11:18:52.212Z,39.30
2022-08-02T11:21:28.999Z,39.40
2022-08-02T11:24:17.397Z,39.20
2022-08-02T11:26:46.316Z,39.10
2022-08-02T11:29:15.998Z,38.70
2022-08-02T11:31:46.153Z,38.90
2022-08-02T11:34:36.501Z,38.90
2022-08-02T11:37:08.220Z,39.00
2022-08-02T11:39:36.684Z,39.00
2022-08-02T11:42:05.091Z,38.70
2022-08-02T11:44:42.456Z,38.70
2022-08-02T11:47:10.610Z,38.40
2022-08-02T11:49:39.121Z,38.70
2022-08-02T11:52:11.804Z,38.70
2022-08-02T11:54:43.085Z,38.60
2022-08-02T11:57:23.357Z,38.50
2022-08-02T11:59:54.214Z,38.20
2022-08-02T12:02:36.669Z,38.20
2022-08-02T12:05:08.918Z,38.00
2022-08-02T12:07:45.753Z,38.30
2022-08-02T12:10:17.509Z,38.10
2022-08-02T12:12:50.342Z,38.00
2022-08-02T12:15:45.576Z,38.20
2022-08-02T12:18:37.763Z,38.10
2022-08-02T12:21:22.628Z,37.90
2022-08-02T12:24:00.375Z,37.80
2022-08-02T12:26:46.572Z,37.70
2022-08-02T12:29:15.508Z,37.90
2022-08-02T12:32:05.314Z,37.30
2022-08-02T12:34:35.435Z,36.80
2022-08-02T12:37:05.557Z,36.80
2022-08-02T12:39:43.255Z,36.80
2022-08-02T12:42:15.716Z,36.80
2022-08-02T12:45:00.377Z,36.80
2022-08-02T12:47:31.246Z,36.80
2022-08-02T12:50:21.075Z,36.50
2022-08-02T12:52:50.167Z,36.40
2022-08-02T12:55:26.435Z,36.30
2022-08-02T12:58:14.685Z,36.20
2022-08-02T13:01:11.824Z,36.10
2022-08-02T13:04:11.236Z,35.80
2022-08-02T13:06:40.643Z,35.90
2022-08-02T13:09:17.823Z,35.70
2022-08-02T13:11:46.519Z,35.50
2022-08-02T13:14:15.157Z,35.50
2022-08-02T13:16:46.040Z,35.40
2022-08-02T13:19:17.723Z,35.40
2022-08-02T13:22:02.277Z,35.30
2022-08-02T13:24:40.227Z,35.20
2022-08-02T13:27:21.794Z,35.20
2022-08-02T13:29:54.167Z,35.10
2022-08-02T13:32:23.027Z,35.00
2022-08-02T13:34:51.529Z,34.90
2022-08-02T13:37:22.530Z,35.00
2022-08-02T13:40:18.773Z,35.00
2022-08-02T13:42:39.609Z,34.90
2022-08-02T13:45:13.389Z,34.60
2022-08-02T13:48:03.448Z,34.60
2022-08-02T13:50:34.040Z,34.60
2022-08-02T13:53:02.299Z,34.60
2022-08-02T13:55:30.715Z,34.40
2022-08-02T13:57:58.807Z,34.20
2022-08-02T14:00:35.088Z,34.20
2022-08-02T14:03:12.187Z,34.00
2022-08-02T14:05:47.554Z,33.80
2022-08-02T14:08:22.934Z,33.60
2022-08-02T14:10:52.554Z,33.50
2022-08-02T14:13:20.841Z,33.50
2022-08-02T14:15:49.135Z,33.80
2022-08-02T14:18:17.717Z,34.40
2022-08-02T14:20:46.272Z,34.30
2022-08-02T14:23:14.696Z,34.60
2022-08-02T14:25:43.085Z,35.10
2022-08-02T14:28:11.047Z,35.20
2022-08-02T14:30:39.300Z,34.80
2022-08-02T14:33:07.533Z,35.10
2022-08-02T14:35:35.860Z,35.80
2022-08-02T14:38:03.928Z,36.10
2022-08-02T14:40:32.295Z,35.70
2022-08-02T14:43:01.539Z,35.20
2022-08-02T14:45:40.961Z,35.70
2022-08-02T14:48:12.653Z,36.10
2022-08-02T14:50:40.862Z,35.50
2022-08-02T14:53:12.624Z,35.30
2022-08-02T14:55:41.962Z,35.90
2022-08-02T14:58:10.980Z,36.30
2022-08-02T15:00:41.287Z,36.00
2022-08-02T15:03:11.288Z,36.40
2022-08-02T15:05:40.309Z,36.50
2022-08-02T15:08:08.729Z,35.90
2022-08-02T15:10:36.820Z,36.00
2022-08-02T15:13:05.251Z,36.50
2022-08-02T15:15:43.050Z,36.50
2022-08-02T15:18:13.797Z,36.30
2022-08-02T15:20:43.351Z,36.70
2022-08-02T15:23:25.804Z,37.10
2022-08-02T15:26:07.168Z,36.60
2022-08-02T15:28:35.502Z,36.10
2022-08-02T15:31:03.790Z,36.10
2022-08-02T15:33:32.065Z,36.60
2022-08-02T15:36:00.602Z,36.90
2022-08-02T15:38:28.868Z,36.50
2022-08-02T15:40:57.020Z,36.00
2022-08-02T15:43:25.448Z,36.20
2022-08-02T15:45:53.781Z,36.70
2022-08-02T15:48:21.830Z,36.50
2022-08-02T15:50:52.950Z,36.20
2022-08-02T15:53:21.085Z,36.40
2022-08-02T15:56:05.366Z,36.80
2022-08-02T15:58:44.078Z,36.30
2022-08-02T16:01:13.333Z,36.70
2022-08-02T16:03:41.754Z,36.90
2022-08-02T16:06:09.940Z,36.40
2022-08-02T16:08:53.649Z,36.60
2022-08-02T16:11:24.175Z,36.90
2022-08-02T16:13:55.109Z,36.50
2022-08-02T16:16:28.793Z,36.50
2022-08-02T16:18:57.686Z,37.00
2022-08-02T16:21:25.916Z,36.60
2022-08-02T16:23:59.282Z,36.40
2022-08-02T16:26:33.541Z,36.60
2022-08-02T16:29:03.310Z,36.40
2022-08-02T16:31:31.395Z,36.10
2022-08-02T16:33:59.559Z,36.20
2022-08-02T16:36:28.283Z,36.20
2022-08-02T16:38:57.018Z,35.70
2022-08-02T16:41:51.702Z,35.90
2022-08-02T16:44:13.580Z,36.30
2022-08-02T16:46:41.546Z,35.90
2022-08-02T16:50:05.394Z,35.50
2022-08-02T16:52:02.078Z,35.90
2022-08-02T16:54:30.720Z,35.80
2022-08-02T16:56:58.958Z,35.50
2022-08-02T16:59:28.091Z,35.60
2022-08-02T17:02:11.521Z,35.60
2022-08-02T17:04:42.854Z,35.10
2022-08-02T17:10:03.776Z,35.70
2022-08-02T17:12:35.630Z,35.00
2022-08-02T17:16:16.704Z,34.90
2022-08-02T17:17:52.687Z,35.00
2022-08-02T17:20:21.682Z,34.50
2022-08-02T17:22:53.625Z,34.20
2022-08-02T17:25:24.779Z,34.20
2022-08-02T17:27:55.534Z,34.00
2022-08-02T17:30:26.568Z,33.70
2022-08-02T17:32:57.894Z,34.00
2022-08-02T17:35:51.927Z,33.80
2022-08-02T17:38:26.314Z,33.30
2022-08-02T17:40:56.385Z,33.20
2022-08-02T17:43:25.909Z,33.00
2022-08-02T17:49:04.503Z,32.40
2022-08-02T17:52:49.577Z,32.60
2022-08-02T17:54:21.912Z,32.30
2022-08-02T17:56:51.376Z,32.00
2022-08-02T18:02:17.303Z,31.60
2022-08-02T18:04:46.426Z,31.30
2022-08-02T18:07:23.540Z,31.60
2022-08-02T18:09:54.168Z,31.10
2022-08-02T18:12:22.392Z,31.20
2022-08-02T18:14:52.511Z,31.20
2022-08-02T18:17:20.970Z,31.20
2022-08-02T18:19:55.291Z,31.20
2022-08-02T18:22:28.265Z,31.20
2022-08-02T18:24:56.244Z,31.30
2022-08-02T18:27:24.840Z,31.10
2022-08-02T18:30:00.393Z,31.20
2022-08-02T18:33:58.494Z,31.30
2022-08-02T18:35:21.857Z,31.10
2022-08-02T18:37:57.015Z,31.00
2022-08-02T18:40:32.791Z,31.20
2022-08-02T18:43:03.293Z,31.10
2022-08-02T18:45:36.850Z,30.80
2022-08-02T18:48:20.657Z,30.50
2022-08-02T18:50:50.026Z,30.30
2022-08-02T18:56:07.260Z,30.00
2022-08-02T18:58:35.614Z,29.80
2022-08-02T19:01:14.640Z,29.70
2022-08-02T19:03:50.209Z,29.70
2022-08-02T19:06:19.819Z,30.20
2022-08-02T19:09:11.242Z,30.30
2022-08-02T19:11:37.789Z,30.10
2022-08-02T19:14:06.332Z,30.00
2022-08-02T19:16:37.677Z,29.80
2022-08-02T19:19:07.582Z,30.20
2022-08-02T19:22:15.999Z,30.30
2022-08-02T19:24:24.690Z,30.10
2022-08-02T19:26:55.786Z,29.90
2022-08-02T19:29:48.423Z,29.70
2022-08-02T19:35:28.471Z,30.60
2022-08-02T19:37:58.884Z,30.30
2022-08-02T19:40:30.571Z,30.00
2022-08-02T19:44:23.171Z,29.80
2022-08-02T19:45:50.972Z,30.00
2022-08-02T19:48:24.568Z,30.30
2022-08-02T19:50:56.530Z,30.10
2022-08-02T19:53:29.099Z,29.90
2022-08-02T19:56:20.240Z,29.70
2022-08-02T19:58:54.675Z,29.60
2022-08-02T20:01:36.657Z,30.30
2022-08-02T20:04:13.510Z,30.50
2022-08-02T20:06:45.124Z,30.20
2022-08-02T20:09:16.687Z,29.90
2022-08-02T20:11:54.586Z,29.70
2022-08-02T20:14:27.688Z,30.20
2022-08-02T20:16:57.751Z,31.00
2022-08-02T20:19:29.108Z,30.80
2022-08-02T20:22:03.790Z,30.50
2022-08-02T20:24:32.199Z,30.10
2022-08-02T20:27:00.499Z,29.80
2022-08-02T20:29:42.887Z,30.30
2022-08-02T20:32:23.987Z,31.20
2022-08-02T20:34:53.254Z,30.80
2022-08-02T20:38:00.675Z,30.40
2022-08-02T20:40:17.057Z,30.10
2022-08-02T20:42:47.835Z,29.80
2022-08-02T20:45:17.402Z,30.50
2022-08-02T20:47:50.770Z,31.10
2022-08-02T20:50:41.847Z,30.80
2022-08-02T20:53:23.285Z,30.30
2022-08-02T20:55:57.118Z,29.90
2022-08-02T21:01:14.444Z,30.60
2022-08-02T21:03:42.377Z,30.90
2022-08-02T21:06:14.820Z,30.50
2022-08-02T21:08:46.247Z,30.10
2022-08-02T21:11:14.647Z,29.90
2022-08-02T21:13:46.634Z,30.70
2022-08-02T21:16:18.519Z,31.00
2022-08-02T21:18:47.858Z,30.60
2022-08-02T21:21:16.473Z,30.20
2022-08-02T21:23:48.448Z,29.80
2022-08-02T21:26:25.616Z,30.30
2022-08-02T21:28:57.422Z,30.80
2022-08-02T21:34:22.613Z,30.00
2022-08-02T21:36:55.557Z,29.70
2022-08-02T21:39:26.586Z,29.90
2022-08-02T21:41:54.645Z,30.60
2022-08-02T21:44:23.267Z,30.30
2022-08-02T21:46:54.160Z,30.00
2022-08-02T21:49:40.641Z,29.70
2022-08-02T21:52:16.370Z,29.80
2022-08-02T21:54:45.449Z,30.60
2022-08-02T21:57:15.482Z,30.50
2022-08-02T21:59:48.164Z,30.10
2022-08-02T22:02:30.742Z,29.80
2022-08-02T22:05:02.593Z,29.50
2022-08-02T22:07:38.346Z,29.90
2022-08-02T22:10:09.536Z,30.40
2022-08-02T22:12:38.061Z,30.80
2022-08-02T22:15:12.565Z,31.00
2022-08-02T22:17:51.095Z,31.20
2022-08-02T22:20:21.512Z,31.30
2022-08-02T22:22:51.370Z,31.40
2022-08-02T22:25:31.235Z,31.50
2022-08-02T22:30:59.934Z,31.90
2022-08-02T22:34:00.287Z,32.10
2022-08-02T22:36:38.612Z,32.20
2022-08-02T22:42:07.321Z,32.10
2022-08-02T22:44:36.230Z,32.10
2022-08-02T22:47:07.565Z,32.30
2022-08-02T22:49:54.408Z,32.70
2022-08-02T22:52:24.863Z,33.00
2022-08-02T22:54:52.721Z,33.40
2022-08-02T22:58:41.483Z,31.90
2022-08-02T22:58:45.839Z,30.10
2022-08-02T22:58:48.665Z,35.40
2022-08-02T22:58:50.531Z,32.40
2022-08-02T22:58:58.465Z,30.10
2022-08-02T22:59:02.910Z,30.40
2022-08-02T22:59:04.976Z,31.80
2022-08-02T22:59:07.050Z,29.90
2022-08-02T23:00:12.405Z,33.90
2022-08-02T23:02:44.661Z,34.10
2022-08-02T23:05:14.732Z,34.10
2022-08-02T23:07:42.996Z,33.90
2022-08-02T23:10:11.023Z,33.90
2022-08-02T23:12:43.151Z,34.00
2022-08-02T23:15:12.279Z,34.00
2022-08-02T23:17:59.881Z,33.10
2022-08-02T23:20:29.675Z,32.30
2022-08-02T23:22:57.593Z,31.50
2022-08-02T23:25:25.705Z,30.90
2022-08-02T23:27:53.577Z,30.40
2022-08-02T23:30:21.699Z,30.00
2022-08-02T23:32:49.762Z,29.80
2022-08-02T23:35:18.056Z,29.50
2022-08-02T23:37:59.379Z,29.40
2022-08-02T23:40:40.642Z,29.30
2022-08-02T23:43:14.880Z,29.10
2022-08-02T23:45:46.973Z,29.50
2022-08-02T23:48:15.152Z,30.20
2022-08-02T23:50:43.290Z,30.10
2022-08-02T23:53:11.404Z,29.80
2022-08-02T23:55:39.512Z,29.60
2022-08-02T23:58:07.947Z,29.40
